AXM6040 WMKK-WMKJ
Flight info
| Callsign | AXM6040 |
|---|---|
| Flight time | 0h 31m |
| Altitude | 21000 |
| Route | RUSBU1D RUSBU Y511 TOPOR W534 EMTUV |
| Aircraft | A320/M-SDE3FGHIRWY/LB1 |
Departure
| Time | 2026-05-04 14:29 |
|---|---|
| Airport | Kuala Lumpur International Airport (WMKK) |
Arrival
| Time | 2026-05-04 15:01 |
|---|---|
| Airport | Senai International Airport (WMKJ) |
| Time | Latitude | Longitude | Altitude | Speed | Heading |
|---|---|---|---|---|---|
| 2026-05-04 13:50 | 2.74214 | 101.69134 | 42 ft | 0 kts | 146° |
| 2026-05-04 14:17 | 2.74257 | 101.69127 | 40 ft | 4 kts | 210° |
| 2026-05-04 14:17 | 2.74273 | 101.69140 | 39 ft | 0 kts | 237° |
| 2026-05-04 14:21 | 2.74236 | 101.69070 | 39 ft | 8 kts | 250° |
| 2026-05-04 14:21 | 2.74220 | 101.69002 | 41 ft | 13 kts | 253° |
| 2026-05-04 14:21 | 2.74170 | 101.68941 | 42 ft | 10 kts | 241° |
| 2026-05-04 14:21 | 2.74143 | 101.68879 | 41 ft | 9 kts | 245° |
| 2026-05-04 14:22 | 2.74112 | 101.68832 | 40 ft | 8 kts | 236° |
| 2026-05-04 14:22 | 2.74076 | 101.68778 | 42 ft | 9 kts | 236° |
| 2026-05-04 14:22 | 2.74045 | 101.68732 | 42 ft | 8 kts | 236° |
| 2026-05-04 14:22 | 2.73996 | 101.68659 | 42 ft | 16 kts | 236° |
| 2026-05-04 14:23 | 2.73860 | 101.68458 | 42 ft | 19 kts | 236° |
| 2026-05-04 14:23 | 2.73783 | 101.68344 | 42 ft | 21 kts | 236° |
| 2026-05-04 14:23 | 2.73708 | 101.68231 | 41 ft | 14 kts | 236° |
| 2026-05-04 14:24 | 2.73657 | 101.68195 | 40 ft | 8 kts | 152° |
| 2026-05-04 14:24 | 2.73607 | 101.68229 | 40 ft | 11 kts | 146° |
| 2026-05-04 14:24 | 2.73517 | 101.68290 | 40 ft | 18 kts | 145° |
| 2026-05-04 14:24 | 2.73407 | 101.68365 | 40 ft | 20 kts | 146° |
| 2026-05-04 14:25 | 2.73286 | 101.68445 | 40 ft | 22 kts | 146° |
| 2026-05-04 14:25 | 2.73018 | 101.68627 | 40 ft | 25 kts | 146° |
| 2026-05-04 14:25 | 2.72874 | 101.68724 | 40 ft | 24 kts | 146° |
| 2026-05-04 14:26 | 2.72729 | 101.68821 | 40 ft | 26 kts | 146° |
| 2026-05-04 14:26 | 2.72578 | 101.68922 | 40 ft | 24 kts | 146° |
| 2026-05-04 14:26 | 2.72434 | 101.69020 | 40 ft | 26 kts | 146° |
| 2026-05-04 14:26 | 2.72292 | 101.69115 | 40 ft | 23 kts | 146° |
| 2026-05-04 14:27 | 2.72153 | 101.69209 | 40 ft | 25 kts | 146° |
| 2026-05-04 14:27 | 2.72005 | 101.69308 | 40 ft | 26 kts | 146° |
| 2026-05-04 14:27 | 2.71884 | 101.69390 | 39 ft | 16 kts | 147° |
| 2026-05-04 14:27 | 2.71808 | 101.69370 | 40 ft | 12 kts | 234° |
| 2026-05-04 14:28 | 2.71763 | 101.69302 | 39 ft | 11 kts | 237° |
| 2026-05-04 14:28 | 2.71756 | 101.69237 | 39 ft | 9 kts | 292° |
| 2026-05-04 14:28 | 2.71797 | 101.69160 | 38 ft | 14 kts | 298° |
| 2026-05-04 14:28 | 2.71831 | 101.69089 | 39 ft | 7 kts | 304° |
| 2026-05-04 14:29 | 2.72432 | 101.68682 | 37 ft | 117 kts | 326° |
| 2026-05-04 14:29 | 2.74190 | 101.67504 | 761 ft | 160 kts | 327° |
| 2026-05-04 14:30 | 2.75111 | 101.66888 | 1424 ft | 160 kts | 326° |
| 2026-05-04 14:30 | 2.76021 | 101.66149 | 1787 ft | 180 kts | 303° |
| 2026-05-04 14:30 | 2.76282 | 101.63383 | 2343 ft | 224 kts | 270° |
| 2026-05-04 14:31 | 2.76271 | 101.61734 | 2684 ft | 250 kts | 270° |
| 2026-05-04 14:31 | 2.75139 | 101.58381 | 4102 ft | 270 kts | 229° |
| 2026-05-04 14:32 | 2.71753 | 101.56845 | 5753 ft | 281 kts | 179° |
| 2026-05-04 14:32 | 2.69806 | 101.57147 | 6565 ft | 285 kts | 168° |
| 2026-05-04 14:32 | 2.67842 | 101.57497 | 7356 ft | 289 kts | 175° |
| 2026-05-04 14:32 | 2.65842 | 101.57701 | 8167 ft | 291 kts | 164° |
| 2026-05-04 14:33 | 2.64098 | 101.58694 | 8941 ft | 293 kts | 134° |
| 2026-05-04 14:33 | 2.62923 | 101.60353 | 9751 ft | 294 kts | 118° |
| 2026-05-04 14:33 | 2.61891 | 101.62139 | 10354 ft | 304 kts | 120° |
| 2026-05-04 14:33 | 2.60756 | 101.64018 | 10577 ft | 327 kts | 121° |
| 2026-05-04 14:34 | 2.59534 | 101.65988 | 11053 ft | 338 kts | 121° |
| 2026-05-04 14:34 | 2.58278 | 101.67991 | 11722 ft | 342 kts | 122° |
| 2026-05-04 14:34 | 2.57009 | 101.70012 | 12432 ft | 344 kts | 122° |
| 2026-05-04 14:34 | 2.55730 | 101.72051 | 13129 ft | 348 kts | 121° |
| 2026-05-04 14:35 | 2.54445 | 101.74111 | 13800 ft | 350 kts | 121° |
| 2026-05-04 14:35 | 2.53151 | 101.76187 | 14395 ft | 353 kts | 121° |
| 2026-05-04 14:35 | 2.51849 | 101.78281 | 14975 ft | 356 kts | 121° |
| 2026-05-04 14:35 | 2.50507 | 101.80374 | 15555 ft | 359 kts | 123° |
| 2026-05-04 14:36 | 2.49110 | 101.82452 | 16135 ft | 362 kts | 123° |
| 2026-05-04 14:36 | 2.47681 | 101.84528 | 16705 ft | 365 kts | 124° |
| 2026-05-04 14:36 | 2.46231 | 101.86619 | 17288 ft | 368 kts | 124° |
| 2026-05-04 14:36 | 2.45257 | 101.88026 | 17671 ft | 370 kts | 123° |
| 2026-05-04 14:37 | 2.43794 | 101.90149 | 18221 ft | 372 kts | 123° |
| 2026-05-04 14:37 | 2.42325 | 101.92295 | 18695 ft | 375 kts | 123° |
| 2026-05-04 14:37 | 2.40853 | 101.94459 | 19168 ft | 378 kts | 123° |
| 2026-05-04 14:37 | 2.39376 | 101.96640 | 19644 ft | 380 kts | 123° |
| 2026-05-04 14:38 | 2.37886 | 101.98839 | 20109 ft | 383 kts | 123° |
| 2026-05-04 14:38 | 2.36383 | 102.01055 | 20566 ft | 386 kts | 123° |
| 2026-05-04 14:38 | 2.34872 | 102.03281 | 20835 ft | 388 kts | 123° |
| 2026-05-04 14:38 | 2.33367 | 102.05497 | 20904 ft | 378 kts | 123° |
| 2026-05-04 14:39 | 2.31906 | 102.07644 | 20910 ft | 371 kts | 123° |
| 2026-05-04 14:39 | 2.30461 | 102.09769 | 20909 ft | 369 kts | 123° |
| 2026-05-04 14:39 | 2.29020 | 102.11888 | 20909 ft | 368 kts | 123° |
| 2026-05-04 14:40 | 2.26139 | 102.16117 | 20911 ft | 368 kts | 123° |
| 2026-05-04 14:40 | 2.24700 | 102.18232 | 20912 ft | 368 kts | 123° |
| 2026-05-04 14:40 | 2.23263 | 102.20348 | 20919 ft | 368 kts | 123° |
| 2026-05-04 14:40 | 2.21829 | 102.22461 | 20920 ft | 367 kts | 123° |
| 2026-05-04 14:41 | 2.20394 | 102.24574 | 20921 ft | 367 kts | 123° |
| 2026-05-04 14:41 | 2.18959 | 102.26684 | 20920 ft | 367 kts | 123° |
| 2026-05-04 14:41 | 2.16085 | 102.30898 | 20917 ft | 367 kts | 123° |
| 2026-05-04 14:42 | 2.13214 | 102.35114 | 20915 ft | 367 kts | 123° |
| 2026-05-04 14:42 | 2.11783 | 102.37223 | 20915 ft | 366 kts | 123° |
| 2026-05-04 14:42 | 2.10353 | 102.39331 | 20921 ft | 366 kts | 123° |
| 2026-05-04 14:43 | 2.08920 | 102.41440 | 20924 ft | 366 kts | 123° |
| 2026-05-04 14:43 | 2.07488 | 102.43544 | 20916 ft | 366 kts | 123° |
| 2026-05-04 14:43 | 2.06055 | 102.45650 | 20915 ft | 366 kts | 123° |
| 2026-05-04 14:43 | 2.04622 | 102.47753 | 20915 ft | 366 kts | 123° |
| 2026-05-04 14:44 | 2.03208 | 102.49830 | 20915 ft | 366 kts | 123° |
| 2026-05-04 14:44 | 2.01751 | 102.51958 | 20914 ft | 366 kts | 124° |
| 2026-05-04 14:44 | 2.00260 | 102.54016 | 20914 ft | 366 kts | 125° |
| 2026-05-04 14:44 | 1.98723 | 102.56052 | 20913 ft | 366 kts | 126° |
| 2026-05-04 14:45 | 1.97191 | 102.58044 | 20914 ft | 366 kts | 126° |
| 2026-05-04 14:45 | 1.95605 | 102.60102 | 20924 ft | 380 kts | 126° |
| 2026-05-04 14:45 | 1.94007 | 102.62186 | 20759 ft | 375 kts | 126° |
| 2026-05-04 14:45 | 1.92440 | 102.64246 | 20325 ft | 371 kts | 126° |
| 2026-05-04 14:46 | 1.90892 | 102.66295 | 19883 ft | 368 kts | 126° |
| 2026-05-04 14:46 | 1.89362 | 102.68328 | 19449 ft | 365 kts | 126° |
| 2026-05-04 14:46 | 1.87842 | 102.70351 | 19036 ft | 362 kts | 126° |
| 2026-05-04 14:46 | 1.86331 | 102.72360 | 18626 ft | 360 kts | 126° |
| 2026-05-04 14:47 | 1.84833 | 102.74351 | 18219 ft | 358 kts | 126° |
| 2026-05-04 14:47 | 1.83341 | 102.76331 | 17756 ft | 355 kts | 126° |
| 2026-05-04 14:47 | 1.81861 | 102.78297 | 17301 ft | 353 kts | 126° |
| 2026-05-04 14:47 | 1.80387 | 102.80252 | 16852 ft | 351 kts | 126° |
| 2026-05-04 14:48 | 1.78925 | 102.82194 | 16409 ft | 349 kts | 126° |
| 2026-05-04 14:48 | 1.77471 | 102.84128 | 15961 ft | 347 kts | 126° |
| 2026-05-04 14:48 | 1.76022 | 102.86053 | 15538 ft | 345 kts | 126° |
| 2026-05-04 14:48 | 1.74638 | 102.87998 | 15114 ft | 343 kts | 119° |
| 2026-05-04 14:49 | 1.73716 | 102.90182 | 14714 ft | 340 kts | 104° |
| 2026-05-04 14:49 | 1.73352 | 102.92507 | 14302 ft | 339 kts | 95° |
| 2026-05-04 14:49 | 1.73137 | 102.94852 | 13886 ft | 338 kts | 95° |
| 2026-05-04 14:49 | 1.72918 | 102.97185 | 13458 ft | 337 kts | 95° |
| 2026-05-04 14:50 | 1.72695 | 102.99513 | 13017 ft | 336 kts | 95° |
| 2026-05-04 14:50 | 1.72475 | 103.01828 | 12584 ft | 334 kts | 95° |
| 2026-05-04 14:50 | 1.72256 | 103.04138 | 12151 ft | 333 kts | 95° |
| 2026-05-04 14:50 | 1.72042 | 103.06421 | 11908 ft | 325 kts | 95° |
| 2026-05-04 14:51 | 1.71835 | 103.08634 | 11781 ft | 314 kts | 95° |
| 2026-05-04 14:51 | 1.71632 | 103.10782 | 11544 ft | 307 kts | 95° |
| 2026-05-04 14:51 | 1.71434 | 103.12863 | 10973 ft | 303 kts | 95° |
| 2026-05-04 14:51 | 1.71234 | 103.14953 | 10356 ft | 301 kts | 95° |
| 2026-05-04 14:52 | 1.71039 | 103.17028 | 9735 ft | 300 kts | 95° |
| 2026-05-04 14:52 | 1.70841 | 103.19128 | 9127 ft | 298 kts | 95° |
| 2026-05-04 14:52 | 1.70648 | 103.21187 | 8574 ft | 297 kts | 95° |
| 2026-05-04 14:52 | 1.70454 | 103.23241 | 8044 ft | 296 kts | 95° |
| 2026-05-04 14:53 | 1.70265 | 103.25254 | 7546 ft | 294 kts | 95° |
| 2026-05-04 14:53 | 1.70075 | 103.27280 | 7039 ft | 292 kts | 95° |
| 2026-05-04 14:53 | 1.69895 | 103.29294 | 6528 ft | 290 kts | 92° |
| 2026-05-04 14:53 | 1.70072 | 103.31288 | 6009 ft | 287 kts | 76° |
| 2026-05-04 14:54 | 1.70663 | 103.33169 | 5700 ft | 282 kts | 71° |
| 2026-05-04 14:54 | 1.71265 | 103.35032 | 5487 ft | 281 kts | 72° |
| 2026-05-04 14:54 | 1.71854 | 103.36893 | 5294 ft | 281 kts | 72° |
| 2026-05-04 14:54 | 1.72438 | 103.38748 | 5088 ft | 279 kts | 72° |
| 2026-05-04 14:55 | 1.73021 | 103.40595 | 4892 ft | 278 kts | 72° |
| 2026-05-04 14:55 | 1.73604 | 103.42434 | 4685 ft | 277 kts | 72° |
| 2026-05-04 14:55 | 1.74188 | 103.44268 | 4477 ft | 276 kts | 72° |
| 2026-05-04 14:55 | 1.74771 | 103.46093 | 4283 ft | 276 kts | 72° |
| 2026-05-04 14:56 | 1.75350 | 103.47913 | 4077 ft | 272 kts | 72° |
| 2026-05-04 14:56 | 1.75912 | 103.49681 | 3889 ft | 262 kts | 72° |
| 2026-05-04 14:56 | 1.76455 | 103.51385 | 3707 ft | 254 kts | 72° |
| 2026-05-04 14:56 | 1.77012 | 103.53055 | 3403 ft | 254 kts | 70° |
| 2026-05-04 14:57 | 1.77621 | 103.54732 | 2926 ft | 258 kts | 69° |
| 2026-05-04 14:57 | 1.78210 | 103.56424 | 2603 ft | 255 kts | 77° |
| 2026-05-04 14:57 | 1.78356 | 103.58142 | 2477 ft | 243 kts | 95° |
| 2026-05-04 14:57 | 1.78005 | 103.59750 | 2362 ft | 232 kts | 112° |
| 2026-05-04 14:58 | 1.77250 | 103.61137 | 2235 ft | 224 kts | 128° |
| 2026-05-04 14:58 | 1.76190 | 103.62226 | 2138 ft | 214 kts | 143° |
| 2026-05-04 14:58 | 1.74941 | 103.62970 | 1980 ft | 204 kts | 158° |
| 2026-05-04 14:58 | 1.73650 | 103.63447 | 1773 ft | 195 kts | 160° |
| 2026-05-04 14:59 | 1.72425 | 103.63893 | 1546 ft | 179 kts | 160° |
| 2026-05-04 14:59 | 1.71326 | 103.64293 | 1302 ft | 160 kts | 160° |
| 2026-05-04 14:59 | 1.69368 | 103.65006 | 941 ft | 144 kts | 159° |
| 2026-05-04 15:00 | 1.68430 | 103.65347 | 763 ft | 143 kts | 160° |
| 2026-05-04 15:00 | 1.67499 | 103.65685 | 578 ft | 142 kts | 160° |
| 2026-05-04 15:00 | 1.66572 | 103.66024 | 412 ft | 141 kts | 160° |
| 2026-05-04 15:01 | 1.64799 | 103.66668 | 211 ft | 112 kts | 159° |
| 2026-05-04 15:01 | 1.64232 | 103.66878 | 208 ft | 62 kts | 160° |
| 2026-05-04 15:01 | 1.63961 | 103.66977 | 206 ft | 34 kts | 160° |
| 2026-05-04 15:01 | 1.63779 | 103.67040 | 208 ft | 14 kts | 171° |
| 2026-05-04 15:02 | 1.63720 | 103.66972 | 211 ft | 14 kts | 252° |
| 2026-05-04 15:02 | 1.63695 | 103.66898 | 200 ft | 8 kts | 252° |
| 2026-05-04 15:02 | 1.63678 | 103.66847 | 202 ft | 7 kts | 252° |
| 2026-05-04 15:02 | 1.63664 | 103.66816 | 200 ft | 4 kts | 233° |
| 2026-05-04 15:03 | 1.63622 | 103.66821 | 204 ft | 9 kts | 155° |
| 2026-05-04 15:03 | 1.63570 | 103.66842 | 206 ft | 7 kts | 161° |
| 2026-05-04 15:03 | 1.63526 | 103.66858 | 206 ft | 6 kts | 160° |
| 2026-05-04 15:03 | 1.63489 | 103.66868 | 209 ft | 5 kts | 175° |
| 2026-05-04 15:04 | 1.63472 | 103.66849 | 209 ft | 3 kts | 248° |
| 2026-05-04 15:04 | 1.63465 | 103.66830 | 204 ft | 2 kts | 250° |
| 2026-05-04 15:04 | 1.63460 | 103.66817 | 205 ft | 2 kts | 250° |
| 2026-05-04 15:04 | 1.63458 | 103.66811 | 203 ft | 0 kts | 250° |